EST,Max TemperatureF,Mean TemperatureF,Min TemperatureF,Max Dew PointF,MeanDew PointF,Min DewpointF,Max Humidity, Mean Humidity, Min Humidity, Max Sea Level PressureIn, Mean Sea Level PressureIn, Min Sea Level PressureIn, Max VisibilityMiles, Mean VisibilityMiles, Min VisibilityMiles, Max Wind SpeedMPH, Mean Wind SpeedMPH, Max Gust SpeedMPH,PrecipitationIn, CloudCover, Events, WindDirDegrees
2012-2-1,48,45,42,45,34,18,93,67,32,30.18,30.14,30.10,10,10,7,28,20,34,0.00,7,Rain,268
2012-2-2,46,42,39,46,39,25,100,85,46,30.16,30.06,29.99,10,5,0,22,10,33,0.09,6,Fog-Rain-Thunderstorm,285
2012-2-3,44,36,28,25,22,19,86,55,37,30.41,30.36,30.29,10,10,10,12,8,,0.00,0,,210
2012-2-4,48,40,33,41,30,21,100,69,46,30.29,30.16,30.04,10,7,0,13,8,18,0.08,5,Fog-Rain,239
2012-2-5,41,36,30,41,36,30,100,100,100,30.17,30.04,29.95,2,0,0,14,7,,0.01,8,Fog-Rain-Snow,264
2012-2-6,37,30,23,34,28,19,100,86,74,30.17,30.13,30.07,10,10,10,15,7,,0.00,3,,257
2012-2-7,46,36,26,28,26,25,93,70,43,30.15,30.11,30.07,10,10,10,23,14,26,0.00,1,,278
2012-2-8,35,30,24,28,26,23,100,92,65,30.15,30.09,30.02,10,6,0,21,9,30,0.06,5,Snow,57
2012-2-9,32,26,19,21,20,18,100,82,64,30.18,30.12,30.06,10,10,10,21,11,25,0.00,4,,287
2012-2-10,32,26,19,28,23,19,100,91,75,30.11,30.00,29.89,10,9,3,16,11,24,0.00,4,Snow,264
2012-2-11,28,17,5,28,14,0,100,86,67,29.79,29.70,29.64,10,6,0,31,16,51,0.00,8,Snow,287
2012-2-12,19,11,3,9,3,-4,85,75,58,30.02,29.91,29.81,10,9,4,34,25,50,0.00,4,,290
2012-2-13,35,24,14,14,12,10,93,73,38,30.11,30.07,30.01,10,10,10,26,18,33,0.00,3,,283
2012-2-14,35,34,32,32,24,16,87,68,48,29.96,29.94,29.92,10,9,5,13,10,,0.00,8,Rain-Snow,238
2012-2-15,46,36,26,28,26,25,100,61,46,30.27,30.22,30.06,10,10,10,18,9,28,0.00,3,Rain,220
2012-2-16,42,38,35,43,36,25,100,88,53,30.22,30.09,30.00,10,5,0,24,13,33,0.28,8,Rain-Snow,206
2012-2-17,41,36,30,39,29,21,100,75,49,30.09,30.05,30.01,10,10,10,20,15,31,0.00,4,,289
2012-2-18,46,38,30,27,22,19,69,53,34,30.08,30.02,29.96,10,10,10,20,11,29,0.00,0,,272
2012-2-19,35,29,23,27,23,19,100,84,65,30.00,29.88,29.74,10,6,0,13,7,16,0.23,7,Snow,70
2012-2-20,37,29,21,25,21,19,100,78,48,30.22,30.08,29.89,10,10,2,17,10,18,0.03,1,,310
2012-2-21,37,30,24,30,24,19,86,76,65,30.23,30.05,29.90,10,10,10,18,10,24,0.00,2,,172
2012-2-22,46,40,33,39,33,25,93,76,43,29.86,29.74,29.55,10,10,7,23,18,32,0.00,5,Rain,250
2012-2-23,53,45,37,45,40,37,100,90,58,29.67,29.61,29.54,10,7,0,21,16,29,0.00,6,Fog-Rain,259
2012-2-24,60,45,28,52,42,19,100,81,60,29.68,29.56,29.51,10,9,0,32,18,56,0.33,6,Rain-Snow-Thunderstorm,257
2012-2-25,24,20,17,23,13,9,100,71,50,30.18,29.89,29.70,10,8,0,33,25,51,0.00,7,Snow,282
2012-2-26,39,27,15,18,13,7,79,52,30,30.36,30.30,30.17,10,10,10,15,10,28,0.00,0,,228
2012-2-27,51,42,32,28,23,18,60,47,40,30.35,30.31,30.26,10,10,10,22,15,32,0.00,1,,262
2012-2-28,55,44,32,23,14,-2,55,33,11,30.41,30.36,30.31,10,10,10,15,10,25,0.00,0,,274
2012-2-29,57,49,41,54,43,27,100,87,53,30.26,30.04,29.85,10,7,0,25,13,37,1.07,8,Rain-Thunderstorm,219